createdAt,value
2023-04-11T00:02:52.375Z,94775.06
2023-04-11T00:05:55.644Z,94765.50
2023-04-11T00:08:58.785Z,94770.53
2023-04-11T00:12:02.413Z,94766.28
2023-04-11T00:15:06.406Z,94760.19
2023-04-11T00:18:12.715Z,94760.19
2023-04-11T00:21:15.715Z,94761.75
2023-04-11T00:24:18.779Z,94760.97
2023-04-11T00:27:22.087Z,94758.31
2023-04-11T00:30:25.376Z,94769.25
2023-04-11T00:33:29.764Z,94770.03
2023-04-11T00:36:32.886Z,94759.72
2023-04-11T00:39:35.979Z,94765.31
2023-04-11T00:42:39.248Z,94757.63
2023-04-11T00:45:42.371Z,94762.94
2023-04-11T00:48:47.138Z,94762.94
2023-04-11T00:51:50.248Z,94763.25
2023-04-11T00:54:53.334Z,94752.63
2023-04-11T00:57:56.566Z,94757.94
2023-04-11T01:00:59.662Z,94762.78
2023-04-11T01:04:04.668Z,94763.25
2023-04-11T01:07:09.376Z,94752.16
2023-04-11T01:10:14.094Z,94762.00
2023-04-11T01:13:17.371Z,94752.44
2023-04-11T01:16:21.712Z,94757.47
2023-04-11T01:19:27.739Z,94751.34
2023-04-11T01:22:31.927Z,94759.63
2023-04-11T01:25:36.352Z,94754.31
2023-04-11T01:28:39.420Z,94755.88
2023-04-11T01:31:42.825Z,94763.09
2023-04-11T01:34:48.246Z,94749.00
2023-04-11T01:37:51.482Z,94746.03
2023-04-11T01:40:57.027Z,94741.81
2023-04-11T01:44:00.396Z,94738.38
2023-04-11T01:47:03.709Z,94745.25
2023-04-11T01:50:08.436Z,94740.25
2023-04-11T01:53:11.538Z,94728.84
2023-04-11T01:56:16.385Z,94734.16
2023-04-11T01:59:19.641Z,94730.69
2023-04-11T02:02:22.915Z,94734.16
2023-04-11T02:05:26.401Z,94734.16
2023-04-11T02:08:29.574Z,94728.03
2023-04-11T02:11:34.041Z,94740.56
2023-04-11T02:14:44.640Z,94736.03
2023-04-11T02:17:48.271Z,94741.34
2023-04-11T02:20:51.452Z,94735.25
2023-04-11T02:23:54.550Z,94736.81
2023-04-11T02:26:59.214Z,94740.56
2023-04-11T02:30:05.854Z,94738.69
2023-04-11T02:33:08.984Z,94749.63
2023-04-11T02:36:12.714Z,94739.78
2023-04-11T02:39:16.079Z,94736.31
2023-04-11T02:42:20.598Z,94744.31
2023-04-11T02:45:24.037Z,94744.31
2023-04-11T02:48:27.110Z,94742.72
2023-04-11T02:51:31.032Z,94733.66
2023-04-11T02:54:34.136Z,94728.34
2023-04-11T02:57:38.634Z,94721.47
2023-04-11T03:00:41.852Z,94708.19
2023-04-11T03:03:45.383Z,94713.50
2023-04-11T03:06:48.542Z,94714.59
2023-04-11T03:09:51.687Z,94716.16
2023-04-11T03:12:56.208Z,94712.72
2023-04-11T03:15:59.497Z,94712.88
2023-04-11T03:19:02.742Z,94713.34
2023-04-11T03:22:06.249Z,94714.63
2023-04-11T03:25:10.764Z,94710.41
2023-04-11T03:28:15.311Z,94714.31
2023-04-11T03:31:19.168Z,94712.75
2023-04-11T03:34:22.278Z,94721.19
2023-04-11T03:37:25.409Z,94715.09
2023-04-11T03:40:28.852Z,94712.44
2023-04-11T03:43:33.344Z,94707.91
2023-04-11T03:46:36.495Z,94709.00
2023-04-11T03:49:39.603Z,94712.34
2023-04-11T03:52:42.694Z,94713.25
2023-04-11T03:55:45.919Z,94719.78
2023-04-11T03:58:50.516Z,94719.00
2023-04-11T04:01:53.539Z,94720.25
2023-04-11T04:04:58.773Z,94719.56
2023-04-11T04:08:01.920Z,94722.84
2023-04-11T04:11:05.184Z,94723.53
2023-04-11T04:14:09.642Z,94723.53
2023-04-11T04:17:13.132Z,94717.84
2023-04-11T04:20:16.206Z,94719.19
2023-04-11T04:23:22.088Z,94725.28
2023-04-11T04:26:30.084Z,94720.75
2023-04-11T04:29:38.675Z,94714.81
2023-04-11T04:32:43.807Z,94710.28
2023-04-11T04:35:47.047Z,94718.44
2023-04-11T04:38:50.574Z,94710.47
2023-04-11T04:41:58.388Z,94725.63
2023-04-11T04:45:03.319Z,94705.94
2023-04-11T04:48:06.871Z,94704.66
2023-04-11T04:51:10.168Z,94705.16
2023-04-11T04:54:13.203Z,94700.91
2023-04-11T04:57:16.288Z,94702.47
2023-04-11T05:00:22.994Z,94693.72
2023-04-11T05:03:26.374Z,94700.63
2023-04-11T05:06:31.594Z,94705.16
2023-04-11T05:09:34.617Z,94706.72
2023-04-11T05:12:37.687Z,94705.16
2023-04-11T05:15:48.467Z,94700.63
2023-04-11T05:18:51.540Z,94699.81
2023-04-11T05:21:55.650Z,94695.28
2023-04-11T05:24:58.602Z,94698.75
2023-04-11T05:28:01.719Z,94698.75
2023-04-11T05:31:07.107Z,94698.25
2023-04-11T05:34:10.208Z,94697.16
2023-04-11T05:37:13.227Z,94692.63
2023-04-11T05:40:16.308Z,94696.09
2023-04-11T05:43:19.339Z,94687.03
2023-04-11T05:46:23.761Z,94684.09
2023-04-11T05:49:26.914Z,94688.63
2023-04-11T05:52:29.973Z,94682.50
2023-04-11T05:55:32.986Z,94685.97
2023-04-11T05:58:37.795Z,94679.56
2023-04-11T06:01:42.376Z,94688.00
2023-04-11T06:04:46.065Z,94678.94
2023-04-11T06:07:49.246Z,94666.44
2023-04-11T06:10:52.301Z,94663.00
2023-04-11T06:13:55.557Z,94661.13
2023-04-11T06:17:00.691Z,94666.13
2023-04-11T06:20:06.197Z,94659.28
2023-04-11T06:23:09.439Z,94662.59
2023-04-11T06:26:12.421Z,94658.53
2023-04-11T06:29:15.545Z,94670.13
2023-04-11T06:32:20.014Z,94670.59
2023-04-11T06:35:25.016Z,94659.66
2023-04-11T06:38:28.159Z,94661.22
2023-04-11T06:41:31.332Z,94652.16
2023-04-11T06:44:34.603Z,94643.09
2023-04-11T06:47:39.049Z,94640.94
2023-04-11T06:50:42.142Z,94633.59
2023-04-11T06:53:45.268Z,94635.94
2023-04-11T06:56:50.646Z,94638.13
2023-04-11T06:59:53.743Z,94645.31
2023-04-11T07:02:59.609Z,94652.03
2023-04-11T07:06:03.234Z,94650.00
2023-04-11T07:09:06.749Z,94657.47
2023-04-11T07:12:09.807Z,94652.78
2023-04-11T07:15:12.905Z,94645.88
2023-04-11T07:18:17.424Z,94650.41
2023-04-11T07:21:20.706Z,94652.28
2023-04-11T07:24:23.796Z,94640.41
2023-04-11T07:27:26.889Z,94641.97
2023-04-11T07:30:30.078Z,94640.41
2023-04-11T07:33:34.536Z,94638.53
2023-04-11T07:36:37.683Z,94641.97
2023-04-11T07:39:41.198Z,94636.66
2023-04-11T07:42:46.337Z,94637.44
2023-04-11T07:45:49.353Z,94632.13
2023-04-11T07:48:53.851Z,94630.56
2023-04-11T07:51:56.857Z,94626.81
2023-04-11T07:55:01.862Z,94625.22
2023-04-11T07:58:04.956Z,94621.47
2023-04-11T08:01:09.553Z,94626.00
2023-04-11T08:04:14.354Z,94612.41
2023-04-11T08:07:17.537Z,94607.88
2023-04-11T08:10:20.678Z,94609.44
2023-04-11T08:13:23.737Z,94597.72
2023-04-11T08:16:26.819Z,94607.25
2023-04-11T08:19:32.535Z,94601.34
2023-04-11T08:22:36.000Z,94589.63
2023-04-11T08:25:39.304Z,94589.31
2023-04-11T08:28:43.477Z,94589.78
2023-04-11T08:31:47.045Z,94581.00
2023-04-11T08:34:51.501Z,94575.38
2023-04-11T08:37:54.601Z,94584.16
2023-04-11T08:40:57.854Z,94573.19
2023-04-11T08:44:01.808Z,94569.75
2023-04-11T08:47:07.038Z,94571.31
2023-04-11T08:50:12.064Z,94566.78
2023-04-11T08:53:16.148Z,94576.78
2023-04-11T08:56:19.150Z,94569.13
2023-04-11T08:59:22.197Z,94565.69
2023-04-11T09:02:25.650Z,94565.69
2023-04-11T09:05:31.816Z,94561.31
2023-04-11T09:08:39.814Z,94554.28
2023-04-11T09:11:56.248Z,94558.22
2023-04-11T09:14:59.266Z,94545.88
2023-04-11T09:18:02.461Z,94540.25
2023-04-11T09:21:08.617Z,94532.25
2023-04-11T09:24:18.314Z,94521.94
2023-04-11T09:27:24.595Z,94523.34
2023-04-11T09:30:27.997Z,94528.16
2023-04-11T09:33:31.790Z,94518.94
2023-04-11T09:36:36.587Z,94520.00
2023-04-11T09:39:39.636Z,94512.53
2023-04-11T09:42:43.157Z,94507.50
2023-04-11T09:48:52.175Z,94499.53
2023-04-11T09:51:58.866Z,94485.75
2023-04-11T09:55:02.558Z,94486.84
2023-04-11T09:58:07.246Z,94491.38
2023-04-11T10:01:11.688Z,94486.38
2023-04-11T10:07:19.565Z,94473.84
2023-04-11T10:10:25.084Z,94475.09
2023-04-11T10:13:41.711Z,94471.66
2023-04-11T10:17:12.768Z,94463.84
2023-04-11T10:20:44.986Z,94464.81
2023-04-11T10:24:14.061Z,94458.41
2023-04-11T10:27:48.776Z,94451.53
2023-04-11T10:31:03.143Z,94451.97
2023-04-11T10:34:15.939Z,94430.25
2023-04-11T10:37:20.260Z,94426.78
2023-04-11T10:40:25.899Z,94433.69
2023-04-11T10:43:29.079Z,94424.75
2023-04-11T10:46:32.212Z,94413.78
2023-04-11T10:49:38.148Z,94421.47
2023-04-11T10:52:41.840Z,94408.16
2023-04-11T10:55:48.858Z,94409.41
2023-04-11T10:58:53.532Z,94410.19
2023-04-11T11:01:57.073Z,94399.53
2023-04-11T11:05:03.509Z,94401.41
2023-04-11T11:08:06.970Z,94392.97
2023-04-11T11:11:12.595Z,94382.66
2023-04-11T11:14:29.727Z,94384.22
2023-04-11T11:17:32.928Z,94381.56
2023-04-11T11:20:36.849Z,94372.00
2023-04-11T11:23:40.034Z,94368.25
2023-04-11T11:26:46.720Z,94364.03
2023-04-11T11:29:49.959Z,94367.78
2023-04-11T11:32:52.991Z,94369.97
2023-04-11T11:35:58.228Z,94366.53
2023-04-11T11:39:03.606Z,94362.31
2023-04-11T11:42:08.342Z,94351.69
2023-04-11T11:45:17.986Z,94352.00
2023-04-11T11:48:22.443Z,94352.47
2023-04-11T11:51:25.928Z,94351.69
2023-04-11T11:54:29.095Z,94341.50
2023-04-11T11:57:33.672Z,94340.72
2023-04-11T12:00:38.906Z,94329.31
2023-04-11T12:03:42.326Z,94329.31
2023-04-11T12:06:46.726Z,94326.63
2023-04-11T12:09:50.042Z,94325.84
2023-04-11T12:12:54.647Z,94307.25
2023-04-11T12:15:59.228Z,94303.78
2023-04-11T12:19:04.353Z,94301.91
2023-04-11T12:22:07.431Z,94301.78
2023-04-11T12:25:12.192Z,94302.69
2023-04-11T12:28:17.439Z,94306.91
2023-04-11T12:31:21.331Z,94287.50
2023-04-11T12:34:24.372Z,94283.75
2023-04-11T12:37:27.645Z,94296.28
2023-04-11T12:40:30.693Z,94291.72
2023-04-11T12:43:35.151Z,94278.28
2023-04-11T12:46:38.315Z,94275.63
2023-04-11T12:49:41.582Z,94268.44
2023-04-11T12:52:44.758Z,94271.09
2023-04-11T12:55:47.825Z,94282.84
2023-04-11T12:58:52.357Z,94269.22
2023-04-11T13:01:55.664Z,94263.88
2023-04-11T13:05:01.001Z,94258.13
2023-04-11T13:08:04.139Z,94253.56
2023-04-11T13:11:07.731Z,94254.69
2023-04-11T13:14:12.111Z,94243.25
2023-04-11T13:17:15.449Z,94246.22
2023-04-11T13:20:18.497Z,94239.81
2023-04-11T13:23:21.620Z,94243.25
2023-04-11T13:26:27.520Z,94232.63
2023-04-11T13:29:31.994Z,94226.81
2023-04-11T13:32:35.297Z,94228.38
2023-04-11T13:35:38.336Z,94237.44
2023-04-11T13:38:41.399Z,94237.44
2023-04-11T13:41:44.492Z,94227.13
2023-04-11T13:44:48.916Z,94232.13
2023-04-11T13:47:52.013Z,94234.78
2023-04-11T13:50:57.614Z,94227.59
2023-04-11T13:54:00.808Z,94226.50
2023-04-11T13:57:07.802Z,94218.53
2023-04-11T14:00:14.322Z,94221.50
2023-04-11T14:03:18.007Z,94222.91
2023-04-11T14:06:21.169Z,94223.69
2023-04-11T14:09:24.262Z,94223.97
2023-04-11T14:12:27.823Z,94220.53
2023-04-11T14:15:32.880Z,94228.22
2023-04-11T14:18:36.075Z,94217.09
2023-04-11T14:21:39.185Z,94211.47
2023-04-11T14:24:42.190Z,94219.75
2023-04-11T14:27:46.552Z,94203.03
2023-04-11T14:30:51.165Z,94221.97
2023-04-11T14:33:54.439Z,94196.91
2023-04-11T14:36:57.654Z,94205.69
2023-04-11T14:40:00.856Z,94212.88
2023-04-11T14:43:04.076Z,94212.41
2023-04-11T14:46:08.715Z,94202.59
2023-04-11T14:49:11.876Z,94206.81
2023-04-11T14:52:14.892Z,94200.41
2023-04-11T14:55:18.415Z,94190.25
2023-04-11T14:58:21.921Z,94198.53
2023-04-11T15:01:27.230Z,94196.34
2023-04-11T15:04:30.552Z,94196.06
2023-04-11T15:07:33.694Z,94192.59
2023-04-11T15:10:36.918Z,94187.28
2023-04-11T15:13:40.201Z,94190.88
2023-04-11T15:16:44.600Z,94193.53
2023-04-11T15:19:47.627Z,94192.75
2023-04-11T15:22:50.708Z,94190.09
2023-04-11T15:25:54.736Z,94192.75
2023-04-11T15:28:57.764Z,94191.66
2023-04-11T15:32:03.935Z,94201.66
2023-04-11T15:35:07.846Z,94191.03
2023-04-11T15:38:11.679Z,94202.09
2023-04-11T15:41:14.904Z,94209.13
2023-04-11T15:44:18.002Z,94203.19
2023-04-11T15:47:22.737Z,94207.91
2023-04-11T15:50:25.842Z,94204.13
2023-04-11T15:53:28.863Z,94203.66
2023-04-11T15:56:33.339Z,94198.97
2023-04-11T15:59:38.061Z,94192.69
2023-04-11T16:02:45.174Z,94204.44
2023-04-11T16:05:50.942Z,94204.03
2023-04-11T16:08:54.220Z,94207.94
2023-04-11T16:11:57.627Z,94199.94
2023-04-11T16:15:00.758Z,94199.94
2023-04-11T16:18:05.462Z,94197.94
2023-04-11T16:21:14.188Z,94198.53
2023-04-11T16:24:18.714Z,94198.53
2023-04-11T16:27:21.825Z,94200.41
2023-04-11T16:30:25.462Z,94188.22
2023-04-11T16:33:30.150Z,94199.19
2023-04-11T16:36:34.505Z,94199.19
2023-04-11T16:39:37.881Z,94200.59
2023-04-11T16:42:41.226Z,94193.72
2023-04-11T16:45:44.772Z,94198.25
2023-04-11T16:48:49.341Z,94198.25
2023-04-11T16:51:52.445Z,94204.22
2023-04-11T16:54:55.728Z,94202.34
2023-04-11T16:57:58.796Z,94203.13
2023-04-11T17:01:02.180Z,94205.31
2023-04-11T17:04:07.202Z,94201.09
2023-04-11T17:07:11.284Z,94197.16
2023-04-11T17:10:14.534Z,94194.50
2023-04-11T17:13:18.717Z,94207.00
2023-04-11T17:16:21.878Z,94198.59
2023-04-11T17:19:26.501Z,94197.22
2023-04-11T17:22:29.586Z,94198.59
2023-04-11T17:25:32.583Z,94207.38
2023-04-11T17:28:35.658Z,94200.19
2023-04-11T17:31:38.723Z,94204.69
2023-04-11T17:34:43.178Z,94210.47
2023-04-11T17:37:46.470Z,94208.41
2023-04-11T17:40:49.540Z,94217.63
2023-04-11T17:43:52.534Z,94217.78
2023-04-11T17:46:55.850Z,94222.47
2023-04-11T17:50:00.416Z,94221.03
2023-04-11T17:53:04.835Z,94235.91
2023-04-11T17:56:08.656Z,94228.56
2023-04-11T17:59:12.529Z,94231.84
2023-04-11T18:02:16.625Z,94234.97
2023-04-11T18:05:24.908Z,94235.13
2023-04-11T18:08:46.786Z,94238.38
2023-04-11T18:11:51.348Z,94244.34
2023-04-11T18:14:54.334Z,94243.88
2023-04-11T18:17:57.460Z,94247.63
2023-04-11T18:21:07.287Z,94245.28
2023-04-11T18:24:11.183Z,94245.28
2023-04-11T18:27:14.287Z,94247.19
2023-04-11T18:30:17.812Z,94259.69
2023-04-11T18:33:21.066Z,94265.00
2023-04-11T18:36:25.851Z,94266.25
2023-04-11T18:39:29.415Z,94260.47
2023-04-11T18:42:32.495Z,94270.34
2023-04-11T18:45:35.737Z,94265.78
2023-04-11T18:48:38.805Z,94275.66
2023-04-11T18:51:43.384Z,94271.09
2023-04-11T18:54:46.430Z,94270.34
2023-04-11T18:57:52.868Z,94267.66
2023-04-11T19:00:57.203Z,94263.13
2023-04-11T19:04:00.562Z,94266.25
2023-04-11T19:07:06.097Z,94263.59
2023-04-11T19:10:10.103Z,94267.81
2023-04-11T19:13:13.247Z,94261.25
2023-04-11T19:16:16.598Z,94270.78
2023-04-11T19:19:19.718Z,94262.81
2023-04-11T19:22:24.221Z,94259.84
2023-04-11T19:25:27.494Z,94259.06
2023-04-11T19:28:30.761Z,94258.28
2023-04-11T19:31:34.091Z,94261.72
2023-04-11T19:34:37.179Z,94249.84
2023-04-11T19:37:41.854Z,94250.47
2023-04-11T19:40:45.026Z,94251.56
2023-04-11T19:43:48.744Z,94240.75
2023-04-11T19:46:51.840Z,94243.41
2023-04-11T19:49:54.990Z,94250.63
2023-04-11T19:53:01.483Z,94245.63
2023-04-11T19:56:06.215Z,94242.97
2023-04-11T19:59:10.659Z,94240.63
2023-04-11T20:02:13.933Z,94240.94
2023-04-11T20:05:18.814Z,94242.50
2023-04-11T20:08:23.289Z,94239.06
2023-04-11T20:11:28.998Z,94239.06
2023-04-11T20:14:32.495Z,94239.06
2023-04-11T20:17:35.702Z,94241.72
2023-04-11T20:20:38.921Z,94238.28
2023-04-11T20:23:43.449Z,94229.53
2023-04-11T20:26:46.487Z,94234.84
2023-04-11T20:29:49.935Z,94226.41
2023-04-11T20:32:55.179Z,94222.66
2023-04-11T20:35:58.355Z,94221.88
2023-04-11T20:39:03.175Z,94226.41
2023-04-11T20:42:10.781Z,94222.19
2023-04-11T20:45:16.312Z,94225.16
2023-04-11T20:48:19.950Z,94220.94
2023-04-11T20:51:23.062Z,94223.28
2023-04-11T20:54:27.671Z,94213.75
2023-04-11T20:57:31.214Z,94217.81
2023-04-11T21:00:34.290Z,94219.38
2023-04-11T21:03:37.785Z,94217.50
2023-04-11T21:06:41.356Z,94209.84
2023-04-11T21:09:45.907Z,94208.63
2023-04-11T21:12:51.560Z,94209.41
2023-04-11T21:15:55.090Z,94210.97
2023-04-11T21:18:58.371Z,94204.84
2023-04-11T21:22:01.481Z,94203.31
2023-04-11T21:25:06.735Z,94203.31
2023-04-11T21:28:09.731Z,94211.56
2023-04-11T21:31:12.800Z,94215.78
2023-04-11T21:34:15.888Z,94213.13
2023-04-11T21:37:18.993Z,94214.22
2023-04-11T21:40:23.721Z,94213.44
2023-04-11T21:43:26.822Z,94209.22
2023-04-11T21:46:30.189Z,94210.78
2023-04-11T21:49:33.489Z,94215.63
2023-04-11T21:52:36.583Z,94209.22
2023-04-11T21:55:45.541Z,94202.66
2023-04-11T21:58:48.579Z,94200.78
2023-04-11T22:01:52.521Z,94203.75
2023-04-11T22:05:05.779Z,94209.84
2023-04-11T22:08:11.698Z,94217.84
2023-04-11T22:11:16.839Z,94209.84
2023-04-11T22:14:19.981Z,94206.44
2023-04-11T22:17:23.804Z,94202.97
2023-04-11T22:20:26.863Z,94209.09
2023-04-11T22:23:30.102Z,94205.63
2023-04-11T22:26:35.144Z,94212.06
2023-04-11T22:29:38.245Z,94206.75
2023-04-11T22:32:41.419Z,94206.75
2023-04-11T22:35:45.179Z,94199.53
2023-04-11T22:38:48.256Z,94199.88
2023-04-11T22:41:53.557Z,94200.97
2023-04-11T22:44:56.749Z,94202.53
2023-04-11T22:48:00.255Z,94199.88
2023-04-11T22:51:04.263Z,94193.78
2023-04-11T22:54:07.557Z,94200.97
2023-04-11T22:57:12.043Z,94190.34
2023-04-11T23:00:17.158Z,94183.13
2023-04-11T23:03:20.770Z,94176.25
2023-04-11T23:06:23.957Z,94178.91
2023-04-11T23:09:28.296Z,94178.13
2023-04-11T23:12:33.028Z,94164.84
2023-04-11T23:15:37.398Z,94170.50
2023-04-11T23:18:40.522Z,94169.38
2023-04-11T23:21:43.706Z,94171.25
2023-04-11T23:24:47.099Z,94168.59
2023-04-11T23:27:51.616Z,94160.19
2023-04-11T23:30:56.241Z,94160.97
2023-04-11T23:33:59.873Z,94155.31
2023-04-11T23:37:03.424Z,94152.66
2023-04-11T23:40:11.137Z,94151.09
2023-04-11T23:43:16.144Z,94142.03
2023-04-11T23:46:19.361Z,94133.28
2023-04-11T23:49:22.459Z,94140.47
2023-04-11T23:52:25.746Z,94132.50
2023-04-11T23:55:29.889Z,94125.16
2023-04-11T23:58:35.378Z,94125.94
